Time;durP1;ratioP1;P1;durP2;ratioP2;P2;SDS_P1;SDS_P2;PMS_P1;PMS_P2;Temp;Humidity;BMP_temperature;BMP_pressure;BME280_temperature;BME280_humidity;BME280_pressure;Samples;Min_cycle;Max_cycle;Signal;HPM_P1;HPM_P2
2023/10/10 00:01:52;;;;;;;6.03;2.88;;;14.80;99.90;;;15.00;100.00;101531.53;5229104;28;20113;-49
2023/10/10 00:04:27;;;;;;;6.15;2.63;;;14.80;99.90;;;14.97;100.00;101533.16;5223508;28;20132;-49
2023/10/10 00:07:05;;;;;;;6.70;2.63;;;14.80;99.90;;;14.93;100.00;101527.84;5223698;28;20094;-49
2023/10/10 00:09:38;;;;;;;6.60;3.00;;;14.70;99.90;;;14.91;100.00;101529.50;5222869;28;20044;-49
2023/10/10 00:12:18;;;;;;;7.25;3.40;;;14.70;99.90;;;14.88;100.00;101534.69;5227299;28;20125;-49
2023/10/10 00:14:53;;;;;;;7.57;3.38;;;14.70;99.90;;;14.87;100.00;101538.16;5221782;28;20061;-51
2023/10/10 00:17:34;;;;;;;;;;;14.70;99.90;;;14.84;100.00;101537.16;5227190;28;20488;-50
2023/10/10 00:20:17;;;;;;;7.15;3.10;;;14.60;99.90;;;14.81;100.00;101537.97;5224673;28;19947;-50
2023/10/10 00:22:58;;;;;;;4.93;2.80;;;14.60;99.90;;;14.79;100.00;101534.38;5226643;28;20045;-48
2023/10/10 00:25:31;;;;;;;;;;;14.60;99.90;;;14.75;100.00;101529.91;5227126;28;20448;-50
2023/10/10 00:28:08;;;;;;;8.18;3.85;;;14.60;99.90;;;14.73;100.00;101528.97;5226146;28;20330;-48
2023/10/10 00:30:43;;;;;;;6.32;2.70;;;14.60;99.90;;;14.70;100.00;101528.88;5238832;28;20056;-49
2023/10/10 00:33:21;;;;;;;;;;;14.50;99.90;;;14.67;100.00;101523.56;5219550;28;20111;-48
2023/10/10 00:35:53;;;;;;;9.57;3.17;;;14.50;99.90;;;14.66;100.00;101527.00;5226558;28;19927;-50
2023/10/10 00:38:29;;;;;;;7.03;3.13;;;14.50;99.90;;;14.64;100.00;101529.59;5225285;28;20230;-50
2023/10/10 00:41:06;;;;;;;5.90;2.78;;;14.50;99.90;;;14.63;100.00;101521.69;5222749;28;20044;-50
2023/10/10 00:43:38;;;;;;;6.32;2.78;;;14.40;99.90;;;14.64;100.00;101529.59;5240843;28;20040;-51
2023/10/10 00:46:12;;;;;;;6.03;3.00;;;14.50;99.90;;;14.66;100.00;101524.38;5226859;28;20051;-49
2023/10/10 00:48:45;;;;;;;5.90;2.88;;;14.50;99.90;;;14.70;100.00;101528.00;5229273;28;20045;-50
2023/10/10 00:51:21;;;;;;;7.10;3.08;;;14.50;99.90;;;14.71;100.00;101529.78;5222924;28;20094;-50
2023/10/10 00:54:09;;;;;;;8.10;3.20;;;14.50;99.90;;;14.71;100.00;101524.53;5225897;28;20117;-49
2023/10/10 00:56:44;;;;;;;6.57;3.20;;;14.50;99.90;;;14.70;100.00;101523.63;5237428;28;20111;-50
2023/10/10 00:59:16;;;;;;;8.43;3.70;;;14.50;99.90;;;14.66;100.00;101521.75;5239388;28;20056;-50
2023/10/10 01:01:50;;;;;;;7.22;3.15;;;14.50;99.90;;;14.64;100.00;101518.19;5223701;28;20044;-50
2023/10/10 01:04:35;;;;;;;6.70;3.35;;;14.40;99.90;;;14.61;100.00;101513.78;5232510;28;20482;-51
2023/10/10 01:07:08;;;;;;;5.82;2.90;;;14.40;99.90;;;14.59;100.00;101509.28;5228011;28;20071;-50
2023/10/10 01:09:44;;;;;;;6.50;2.85;;;14.40;99.90;;;14.57;100.00;101506.63;5241896;28;20051;-50
2023/10/10 01:12:19;;;;;;;7.05;3.10;;;14.40;99.90;;;14.55;100.00;101507.44;5240079;28;20048;-50
2023/10/10 01:14:57;;;;;;;7.22;3.22;;;14.40;99.90;;;14.52;100.00;101505.59;5223290;28;20049;-49
2023/10/10 01:17:32;;;;;;;7.35;3.75;;;14.30;99.90;;;14.49;100.00;101496.78;5223509;28;20572;-48
2023/10/10 01:20:17;;;;;;;6.75;3.08;;;14.30;99.90;;;14.48;100.00;101492.38;5227974;28;20037;-50
2023/10/10 01:22:56;;;;;;;7.00;3.05;;;14.30;99.90;;;14.44;100.00;101488.72;5225908;28;20062;-48
2023/10/10 01:25:45;;;;;;;8.30;3.22;;;14.30;99.90;;;14.42;100.00;101486.91;5226059;28;20051;-49
2023/10/10 01:28:33;;;;;;;6.25;3.28;;;14.30;99.90;;;14.38;100.00;101489.41;5239641;28;20493;-48
2023/10/10 01:31:07;;;;;;;7.45;3.25;;;14.20;99.90;;;14.35;100.00;101484.09;5221832;28;20032;-50
2023/10/10 01:33:47;;;;;;;5.53;2.60;;;14.20;99.90;;;14.34;100.00;101482.31;5224059;28;20053;-51
2023/10/10 01:36:29;;;;;;;6.30;3.15;;;14.20;99.90;;;14.34;100.00;101482.31;5226474;28;20076;-50
2023/10/10 01:39:24;;;;;;;6.43;2.83;;;14.20;99.90;;;14.31;100.00;101490.06;5237721;28;20049;-49
2023/10/10 01:41:58;;;;;;;5.15;2.63;;;14.20;99.90;;;14.30;100.00;101488.31;5222073;28;20059;-48
2023/10/10 01:44:31;;;;;;;6.10;2.78;;;14.10;99.90;;;14.28;100.00;101486.47;5228794;28;20055;-49
2023/10/10 01:47:03;;;;;;;7.20;3.00;;;14.10;99.90;;;14.26;100.00;101481.16;5226352;28;20059;-49
2023/10/10 01:49:35;;;;;;;5.78;2.80;;;14.10;99.90;;;14.24;100.00;101477.63;5225237;28;20036;-51
2023/10/10 01:52:13;;;;;;;6.88;3.28;;;14.10;99.90;;;14.23;100.00;101486.34;5226190;28;20393;-49
2023/10/10 01:54:52;;;;;;;6.40;3.35;;;14.10;99.90;;;14.20;100.00;101473.13;5222258;28;20411;-48
2023/10/10 01:57:26;;;;;;;8.88;3.25;;;14.10;99.90;;;14.18;100.00;101469.56;5223710;28;20531;-49
2023/10/10 02:00:05;;;;;;;5.32;2.65;;;14.00;99.90;;;14.16;100.00;101465.13;5242107;28;20098;-50
2023/10/10 02:02:44;;;;;;;6.50;3.35;;;14.00;99.90;;;14.13;100.00;101465.91;5237795;28;20553;-50
2023/10/10 02:05:29;;;;;;;8.20;3.00;;;14.00;99.90;;;14.11;100.00;101467.59;5223537;28;20515;-50
2023/10/10 02:08:03;;;;;;;6.25;3.10;;;13.90;99.90;;;14.08;100.00;101462.25;5223301;28;20059;-49
2023/10/10 02:10:43;;;;;;;7.15;2.92;;;14.00;99.90;;;14.06;100.00;101456.97;5218692;28;20037;-48
2023/10/10 02:13:16;;;;;;;6.10;2.80;;;13.90;99.90;;;14.05;100.00;101473.53;5222767;28;20056;-51
2023/10/10 02:15:49;;;;;;;7.85;3.08;;;13.90;99.90;;;14.05;100.00;101462.16;5224964;28;20412;-50
2023/10/10 02:18:37;;;;;;;5.85;2.65;;;13.90;99.90;;;14.04;100.00;101460.38;5224652;28;20045;-50
2023/10/10 02:21:16;;;;;;;7.50;3.75;;;13.90;99.90;;;14.04;100.00;101449.91;5223025;28;20059;-49
2023/10/10 02:23:53;;;;;;;6.85;3.50;;;13.90;99.90;;;14.03;100.00;101458.63;5229390;28;20090;-49
2023/10/10 02:26:35;;;;;;;8.13;3.40;;;13.90;99.90;;;14.01;100.00;101455.03;5216916;28;20044;-50
2023/10/10 02:29:33;;;;;;;5.43;2.50;;;13.80;99.90;;;13.99;100.00;101447.13;5218925;28;20063;-48
2023/10/10 02:32:09;;;;;;;5.50;2.90;;;13.80;99.90;;;13.99;100.00;101456.72;5237806;28;20044;-49
2023/10/10 02:34:43;;;;;;;5.82;2.95;;;13.80;99.90;;;13.98;100.00;101442.72;5224253;28;20044;-49
2023/10/10 02:37:41;;;;;;;5.07;3.00;;;13.80;99.90;;;13.96;100.00;101449.69;5239042;28;20053;-50
2023/10/10 02:40:14;;;;;;;5.68;2.58;;;13.80;99.90;;;13.95;100.00;101444.34;5222775;28;20048;-48
2023/10/10 02:43:09;;;;;;;6.53;2.92;;;13.80;99.90;;;13.93;100.00;101453.91;5226357;28;20056;-51
2023/10/10 02:45:44;;;;;;;5.90;3.00;;;13.80;99.90;;;13.90;100.00;101452.09;5237307;28;20048;-50
2023/10/10 02:48:23;;;;;;;5.35;2.78;;;13.80;99.90;;;13.89;100.00;101450.31;5221639;28;20049;-49
2023/10/10 02:50:55;;;;;;;7.90;2.90;;;13.80;99.90;;;13.89;100.00;101459.88;5224274;28;20047;-50
2023/10/10 02:53:32;;;;;;;5.43;3.10;;;13.70;99.90;;;13.86;100.00;101450.22;5224686;28;20045;-49
2023/10/10 02:56:09;;;;;;;6.75;3.50;;;13.70;99.90;;;13.83;100.00;101453.63;5236439;28;20457;-49
2023/10/10 02:58:48;;;;;;;6.50;2.60;;;13.70;99.90;;;13.82;100.00;101451.84;5218564;28;20060;-49
2023/10/10 03:01:50;;;;;;;6.15;3.15;;;13.70;99.90;;;13.81;100.00;101457.03;5225516;28;20480;-49
2023/10/10 03:04:23;;;;;;;7.35;3.17;;;13.70;99.90;;;13.79;100.00;101454.38;5244057;28;20078;-49
2023/10/10 03:06:56;;;;;;;6.15;2.88;;;13.70;99.90;;;13.77;100.00;101458.69;5236669;28;20136;-49
2023/10/10 03:09:38;;;;;;;7.32;3.13;;;13.70;99.90;;;13.77;100.00;101456.06;5228382;28;20396;-49
2023/10/10 03:12:17;;;;;;;5.45;2.75;;;13.60;99.90;;;13.76;100.00;101454.28;5226520;28;20040;-49
2023/10/10 03:14:53;;;;;;;6.75;2.67;;;13.60;99.90;;;13.74;100.00;101453.31;5242259;28;20044;-49
2023/10/10 03:17:43;;;;;;;5.82;3.30;;;13.60;99.90;;;13.72;100.00;101456.75;5226271;28;20129;-50
2023/10/10 03:20:38;;;;;;;5.45;2.58;;;13.60;99.90;;;13.69;100.00;101452.31;5227236;28;20052;-49
2023/10/10 03:23:23;;;;;;;5.00;2.50;;;13.60;99.90;;;13.68;100.00;101455.75;5230096;28;20044;-49
2023/10/10 03:26:04;;;;;;;6.05;2.70;;;13.60;99.90;;;13.67;100.00;101453.97;5242802;28;20048;-49
2023/10/10 03:28:47;;;;;;;5.22;2.85;;;13.50;99.90;;;13.69;100.00;101447.06;5228030;28;20503;-50
2023/10/10 03:31:24;;;;;;;6.15;2.70;;;13.60;99.90;;;13.70;100.00;101443.59;5226889;28;20033;-49
2023/10/10 03:34:19;;;;;;;6.43;3.10;;;13.60;99.90;;;13.73;100.00;101443.69;5230071;28;20056;-49
2023/10/10 03:37:08;;;;;;;5.65;2.90;;;13.60;99.90;;;13.75;100.00;101448.97;5225596;28;20052;-49
2023/10/10 03:39:48;;;;;;;6.15;2.90;;;13.60;99.90;;;13.76;100.00;101448.16;5223339;28;20059;-49
2023/10/10 05:25:08;;;;;;;8.45;3.42;;;13.10;99.90;;;13.18;100.00;101443.56;5217089;28;20542;-49
2023/10/10 05:27:41;;;;;;;8.60;3.30;;;13.10;99.90;;;13.16;100.00;101438.25;5237744;28;20041;-50
2023/10/10 05:30:23;;;;;;;7.78;3.72;;;13.10;99.90;;;13.16;100.00;101438.25;5237630;28;20403;-49
2023/10/10 05:33:01;;;;;;;4.95;2.67;;;13.00;99.90;;;13.16;100.00;101430.38;5240063;28;20045;-49
2023/10/10 05:35:36;;;;;;;6.53;3.30;;;13.00;99.90;;;13.16;100.00;101426.88;5227712;28;20190;-49
2023/10/10 05:38:08;;;;;;;;;;;13.10;99.90;;;13.17;100.00;101421.72;5239234;28;20636;-50
2023/10/10 05:40:46;;;;;;;6.38;3.58;;;13.10;99.90;;;13.19;100.00;101427.91;5222352;28;20267;-49
2023/10/10 05:43:26;;;;;;;8.73;3.45;;;13.10;99.90;;;13.20;100.00;101432.31;5224344;28;20044;-49
2023/10/10 05:46:00;;;;;;;6.22;3.35;;;13.10;99.90;;;13.20;100.00;101434.03;5239825;28;20047;-50
2023/10/10 05:48:33;;;;;;;6.82;3.40;;;13.10;99.90;;;13.20;100.00;101440.19;5224963;28;20052;-49
2023/10/10 05:51:08;;;;;;;7.45;3.55;;;13.10;99.90;;;13.19;100.00;101441.00;5224763;28;20052;-51
2023/10/10 05:53:40;;;;;;;7.30;3.72;;;13.10;99.90;;;13.19;100.00;101438.38;5225273;28;20045;-48
2023/10/10 05:56:17;;;;;;;8.90;3.95;;;13.10;99.90;;;13.18;100.00;101433.09;5228545;28;20048;-50
2023/10/10 05:58:49;;;;;;;8.60;3.45;;;13.10;99.90;;;13.19;100.00;101435.75;5225202;28;20068;-50
2023/10/10 06:01:23;;;;;;;9.23;3.55;;;13.10;99.90;;;13.21;100.00;101436.72;5222116;28;20048;-49
2023/10/10 06:03:56;;;;;;;9.07;4.18;;;13.10;99.90;;;13.24;100.00;101428.09;5218498;28;20357;-49
2023/10/10 06:06:28;;;;;;;7.55;3.33;;;13.10;99.90;;;13.26;100.00;101413.31;5224376;28;20109;-49
2023/10/10 06:09:01;;;;;;;7.50;3.17;;;13.10;99.90;;;13.30;100.00;101417.78;5226464;28;20070;-49
2023/10/10 06:11:34;;;;;;;7.53;3.15;;;13.10;99.90;;;13.32;100.00;101426.63;5224681;28;20028;-49
2023/10/10 06:14:08;;;;;;;8.52;3.60;;;13.20;99.90;;;13.35;100.00;101426.72;5224295;28;20052;-50
2023/10/10 06:16:46;;;;;;;7.72;3.58;;;13.20;99.90;;;13.38;100.00;101423.31;5221848;28;20135;-49
2023/10/10 06:19:20;;;;;;;8.02;3.90;;;13.30;99.90;;;13.40;100.00;101419.00;5223027;28;20068;-50
2023/10/10 06:21:59;;;;;;;8.75;3.53;;;13.30;99.90;;;13.43;100.00;101412.16;5238981;28;20079;-49
2023/10/10 06:24:33;;;;;;;6.93;3.72;;;13.30;99.90;;;13.46;100.00;101413.97;5222737;28;20404;-49
2023/10/10 06:27:08;;;;;;;8.27;3.78;;;13.30;99.90;;;13.49;100.00;101404.47;5224278;28;20511;-49
2023/10/10 06:29:41;;;;;;;7.15;3.42;;;13.40;99.90;;;13.55;100.00;101411.66;5221886;28;20581;-49
2023/10/10 06:32:16;;;;;;;8.18;3.85;;;13.40;99.90;;;13.58;100.00;101396.94;5221727;28;20077;-50
2023/10/10 06:35:04;;;;;;;;;;;13.50;99.90;;;13.62;100.00;101408.38;5224421;28;20056;-49
2023/10/10 06:37:37;;;;;;;7.03;3.15;;;13.50;99.90;;;13.68;100.00;101400.72;5232005;28;19935;-50
2023/10/10 06:40:10;;;;;;;8.68;3.78;;;13.50;99.90;;;13.74;100.00;101400.91;5219759;28;20049;-50
2023/10/10 06:42:47;;;;;;;8.85;3.70;;;13.60;99.90;;;13.82;100.00;101411.63;5224119;28;20037;-49
2023/10/10 06:45:22;;;;;;;7.38;3.80;;;13.70;99.90;;;13.91;100.00;101405.81;5236827;28;20050;-49
2023/10/10 06:47:56;;;;;;;7.38;4.10;;;13.80;99.90;;;14.05;100.00;101417.59;5221574;28;20403;-49
2023/10/10 06:50:31;;;;;;;9.20;4.05;;;13.90;99.90;;;14.17;100.00;101419.72;5221493;28;20036;-48
2023/10/10 06:53:13;;;;;;;7.50;3.58;;;14.00;99.90;;;14.28;100.00;101424.44;5221709;28;20058;-49
2023/10/10 06:55:47;;;;;;;7.95;3.47;;;14.10;99.90;;;14.43;100.00;101423.09;5224207;28;20032;-49
2023/10/10 06:58:20;;;;;;;6.57;3.70;;;14.30;99.90;;;14.58;100.00;101420.94;5224718;28;20068;-48
2023/10/10 07:01:04;;;;;;;9.60;3.90;;;14.40;99.90;;;14.75;100.00;101424.94;5219688;28;20048;-50
2023/10/10 07:03:39;;;;;;;10.93;4.43;;;14.60;99.90;;;14.91;100.00;101421.88;5221429;28;20060;-50
2023/10/10 07:06:12;;;;;;;8.32;3.95;;;14.70;99.90;;;15.08;100.00;101424.06;5224663;28;20048;-51
2023/10/10 07:08:49;;;;;;;8.85;4.50;;;14.90;99.90;;;15.20;100.00;101421.78;5240243;28;20044;-50
2023/10/10 07:11:22;;;;;;;8.02;4.00;;;15.00;99.90;;;15.36;100.00;101420.41;5235773;28;20047;-49
2023/10/10 07:13:58;;;;;;;9.52;4.18;;;15.10;99.90;;;15.50;100.00;101423.38;5224136;28;20068;-49
2023/10/10 07:16:32;;;;;;;10.90;4.25;;;15.30;99.90;;;15.67;100.00;101420.34;5227157;28;20036;-47
2023/10/10 07:19:19;;;;;;;7.00;3.50;;;15.40;99.90;;;15.86;100.00;101424.31;5241916;28;20059;-47
2023/10/10 07:21:51;;;;;;;8.52;3.72;;;15.60;99.90;;;16.04;100.00;101421.22;5236208;28;20041;-47
2023/10/10 07:24:28;;;;;;;7.95;3.35;;;15.80;99.90;;;16.17;100.00;101417.09;5223701;28;20036;-49
2023/10/10 07:27:10;;;;;;;8.48;3.50;;;15.90;99.90;;;16.29;100.00;101426.13;5233988;28;20532;-48
2023/10/10 07:30:08;;;;;;;7.72;3.63;;;16.10;99.90;;;16.50;100.00;101432.72;5223947;28;20052;-48
2023/10/10 07:32:42;;;;;;;7.03;3.42;;;16.30;99.90;;;16.71;100.00;101432.31;5223111;28;20047;-48
2023/10/10 07:35:16;;;;;;;6.63;3.30;;;16.40;99.90;;;16.79;100.00;101434.22;5221602;28;20059;-48
2023/10/10 07:37:52;;;;;;;6.40;3.25;;;16.50;99.90;;;16.87;100.00;101433.47;5225014;28;20127;-52
2023/10/10 07:40:30;;;;;;;8.35;3.80;;;16.60;99.90;;;16.95;100.00;101443.31;5229386;28;20512;-50
2023/10/10 07:43:03;;;;;;;8.00;3.47;;;16.70;99.90;;;16.97;100.00;101440.69;5222842;28;20049;-50
2023/10/10 07:45:43;;;;;;;8.55;3.40;;;16.70;99.90;;;16.94;100.00;101438.00;5224013;28;20057;-50
2023/10/10 07:51:09;;;;;;;8.75;3.72;;;16.70;99.90;;;17.05;100.00;101429.44;5226203;28;20139;-49
2023/10/10 07:53:43;;;;;;;8.00;3.40;;;16.80;99.90;;;17.18;100.00;101429.66;5229252;28;20052;-50
2023/10/10 07:56:16;;;;;;;9.23;3.47;;;16.80;99.90;;;17.36;100.00;101430.88;5226432;28;20196;-49
2023/10/10 07:58:50;;;;;;;8.30;3.92;;;16.90;99.90;;;17.60;100.00;101427.78;5227585;28;20051;-49
2023/10/10 08:01:23;;;;;;;12.32;3.78;;;17.10;99.90;;;17.80;100.00;101421.94;5228534;28;20044;-49
2023/10/10 08:03:55;;;;;;;8.32;3.58;;;17.30;99.90;;;17.96;100.00;101425.69;5227046;28;20048;-51
2023/10/10 08:06:33;;;;;;;8.27;3.85;;;17.40;99.90;;;18.28;100.00;101426.16;5224502;28;20515;-48
2023/10/10 08:09:18;;;;;;;9.32;3.67;;;17.60;99.90;;;18.64;100.00;101416.03;5225738;28;20044;-51
2023/10/10 08:11:54;;;;;;;9.50;3.67;;;17.90;99.90;;;18.98;100.00;101427.03;5241832;28;20047;-50
2023/10/10 08:14:31;;;;;;;8.63;3.53;;;18.20;99.90;;;19.35;100.00;101427.34;5221793;28;20052;-53
2023/10/10 08:17:18;;;;;;;9.38;3.60;;;18.50;99.90;;;19.75;100.00;101420.66;5225417;28;20093;-53
2023/10/10 08:19:51;;;;;;;7.53;4.00;;;18.80;99.90;;;20.35;100.00;101421.91;5227672;28;20044;-52
2023/10/10 08:22:26;;;;;;;8.07;3.70;;;19.30;99.90;;;21.11;100.00;101422.16;5234627;28;20507;-52
2023/10/10 08:24:58;;;;;;;8.88;3.78;;;19.90;99.90;;;21.60;100.00;101411.63;5231044;28;20040;-46
2023/10/10 08:27:33;;;;;;;6.70;3.63;;;20.40;99.90;;;21.95;98.52;101411.53;5228569;28;20751;-47
2023/10/10 08:30:13;;;;;;;8.45;3.03;;;20.80;99.90;;;22.00;97.36;101410.66;5245409;28;20044;-47
2023/10/10 08:32:48;;;;;;;6.90;3.40;;;20.90;99.90;;;22.06;96.25;101415.97;5228064;28;20044;-46
2023/10/10 08:35:21;;;;;;;9.00;3.67;;;21.10;99.90;;;21.92;96.08;101408.91;5228004;28;20047;-51
2023/10/10 08:37:56;;;;;;;9.35;3.95;;;21.10;99.90;;;21.75;95.91;101405.41;5234519;28;20444;-49
2023/10/10 08:40:35;;;;;;;7.90;3.17;;;21.00;99.90;;;21.63;96.84;101400.09;5238246;28;20033;-50
2023/10/10 08:43:09;;;;;;;7.65;3.50;;;21.00;99.90;;;21.53;97.42;101401.00;5225800;28;20048;-50
2023/10/10 08:45:43;;;;;;;7.43;3.30;;;21.00;99.90;;;21.42;97.66;101394.81;5226894;28;20523;-49
2023/10/10 08:48:26;;;;;;;6.93;3.15;;;20.90;99.90;;;21.33;97.54;101395.72;5226543;28;20525;-50
2023/10/10 08:51:03;;;;;;;6.25;3.00;;;20.90;99.90;;;21.28;97.94;101408.03;5226636;28;20106;-50
2023/10/10 08:53:39;;;;;;;8.05;3.40;;;20.80;99.90;;;21.24;97.96;101401.84;5234906;28;20132;-50
2023/10/10 08:56:14;;;;;;;8.50;3.03;;;20.80;99.90;;;21.32;98.59;101404.53;5241941;28;20048;-49
2023/10/10 08:58:48;;;;;;;5.10;2.80;;;20.80;99.90;;;21.38;98.62;101404.53;5243632;28;20148;-49
2023/10/10 09:01:22;;;;;;;9.05;3.15;;;20.90;99.90;;;21.32;97.73;101397.47;5224012;28;20044;-45
2023/10/10 09:03:57;;;;;;;7.07;3.38;;;20.90;99.90;;;21.28;97.13;101402.75;5227799;28;20028;-45
2023/10/10 09:06:42;;;;;;;7.00;2.95;;;20.80;99.90;;;21.30;97.88;101396.56;5223211;28;20090;-44
2023/10/10 09:09:35;;;;;;;7.32;3.35;;;20.80;99.90;;;21.46;97.93;101391.28;5224506;28;20060;-44
2023/10/10 09:12:14;;;;;;;5.90;2.67;;;20.90;99.90;;;21.58;97.55;101385.94;5228406;28;20041;-48
2023/10/10 09:14:50;;;;;;;6.93;3.00;;;21.00;99.90;;;21.68;97.38;101385.06;5228711;28;20052;-45
2023/10/10 09:17:32;;;;;;;6.30;3.05;;;21.10;99.90;;;21.75;96.82;101384.16;5243031;28;20052;-45
2023/10/10 09:20:17;;;;;;;5.60;2.60;;;21.20;99.90;;;21.75;96.31;101377.97;5222828;28;20488;-45
2023/10/10 09:22:52;;;;;;;7.63;2.95;;;21.20;99.90;;;21.74;95.81;101386.84;5225287;28;20048;-50
2023/10/10 09:25:31;;;;;;;8.30;3.22;;;21.20;99.90;;;21.69;95.94;101381.53;5224740;28;20452;-50
2023/10/10 09:28:08;;;;;;;6.22;2.88;;;21.20;99.90;;;21.65;96.49;101379.78;5234695;28;20040;-51
2023/10/10 09:30:45;;;;;;;4.60;2.35;;;21.10;99.90;;;21.63;96.56;101381.53;5241536;28;20044;-50
2023/10/10 09:33:27;;;;;;;5.30;2.38;;;21.10;99.90;;;21.64;97.36;101373.56;5226959;28;20049;-51
2023/10/10 09:36:09;;;;;;;6.97;2.70;;;21.10;99.90;;;21.67;97.84;101376.22;5225642;28;20131;-50
2023/10/10 09:38:45;;;;;;;5.93;2.53;;;21.10;99.90;;;21.74;97.81;101377.09;5239485;28;20472;-49
2023/10/10 09:41:37;;;;;;;8.25;3.42;;;21.10;99.90;;;21.68;97.27;101372.69;5237399;28;20048;-45
2023/10/10 09:44:30;;;;;;;6.53;3.15;;;21.20;99.90;;;21.56;97.19;101371.81;5241771;28;20049;-45
2023/10/10 09:47:36;;;;;;;7.95;3.20;;;21.00;99.90;;;21.44;97.40;101372.69;5244134;28;20057;-45
2023/10/10 09:52:58;;;;;;;6.95;2.95;;;21.00;99.90;;;21.38;98.54;101370.94;5208513;28;20167;-45
2023/10/10 09:55:40;;;;;;;6.82;2.72;;;20.90;99.90;;;21.43;98.85;101367.41;5221683;28;20495;-45
2023/10/10 09:58:24;;;;;;;6.78;3.03;;;20.90;99.90;;;21.46;99.04;101367.44;5241078;28;20048;-48
2023/10/10 10:01:14;;;;;;;6.65;2.65;;;21.00;99.90;;;21.50;99.18;101371.81;5226152;28;20108;-48
2023/10/10 10:03:56;;;;;;;7.43;2.97;;;21.00;99.90;;;21.59;99.01;101363.88;5235160;28;20483;-48
2023/10/10 10:06:56;;;;;;;6.70;3.15;;;21.00;99.90;;;21.71;98.89;101376.22;5237871;28;20059;-48
2023/10/10 10:10:20;;;;;;;7.32;2.88;;;21.10;99.90;;;21.79;97.99;101370.03;5234323;28;20041;-48
2023/10/10 10:13:21;;;;;;;7.93;3.28;;;21.20;99.90;;;21.85;97.55;101375.31;5227206;28;20505;-49
2023/10/10 10:16:20;;;;;;;5.63;2.67;;;21.30;99.90;;;21.87;96.79;101368.22;5232112;28;20140;-48
2023/10/10 10:19:10;;;;;;;5.15;2.38;;;21.30;99.90;;;22.00;97.51;101368.19;5221384;28;20044;-49
2023/10/10 10:24:33;;;;;;;6.35;2.70;;;21.50;99.90;;;22.23;95.98;101376.09;5219515;28;20063;-48
2023/10/10 10:27:21;;;;;;;5.25;2.47;;;21.60;99.90;;;22.25;95.80;101375.22;5224642;28;20064;-44
2023/10/10 10:30:30;;;;;;;4.43;2.22;;;21.70;99.90;;;22.34;95.48;101375.16;5242248;28;20109;-44
2023/10/10 10:32:58;;;;;;;4.35;2.08;;;21.70;99.90;;;22.38;95.14;101376.03;5220941;28;20049;-45
2023/10/10 10:36:19;;;;;;;5.82;2.47;;;21.80;99.90;;;22.36;95.65;101378.69;5220713;28;20064;-44
2023/10/10 10:41:48;;;;;;;7.50;2.72;;;21.80;99.90;;;22.41;95.26;101370.72;5219669;28;20059;-51
2023/10/10 10:44:53;;;;;;;5.03;2.58;;;21.80;99.90;;;22.54;95.55;101360.91;5224202;28;20036;-51
2023/10/10 10:47:54;;;;;;;4.13;2.03;;;21.90;99.90;;;22.67;94.57;101368.78;5240525;28;20040;-52
2023/10/10 10:50:42;;;;;;;5.82;2.60;;;22.10;99.90;;;22.74;93.14;101359.00;5241882;28;20054;-51
2023/10/10 10:53:35;;;;;;;5.20;2.55;;;22.20;99.90;;;22.91;93.15;101361.59;5232433;28;20094;-50
2023/10/10 10:56:37;;;;;;;5.35;2.70;;;22.20;99.90;;;23.05;93.33;101356.19;5222228;28;20526;-50
2023/10/10 10:59:12;;;;;;;5.05;2.30;;;22.40;99.90;;;23.23;93.04;101350.72;5224084;28;20044;-50
2023/10/10 11:01:51;;;;;;;5.40;2.60;;;22.60;99.90;;;23.34;91.96;101339.97;5223466;28;20040;-51
2023/10/10 11:04:42;;;;;;;4.85;2.13;;;22.70;99.50;;;23.40;91.55;101340.78;5223476;28;20033;-49
2023/10/10 11:07:32;;;;;;;5.07;2.40;;;22.70;99.20;;;23.49;90.80;101339.84;5241148;28;20044;-50
2023/10/10 11:10:08;;;;;;;5.63;2.58;;;22.80;99.10;;;23.56;90.02;101331.78;5224183;28;20052;-50
2023/10/10 11:12:41;;;;;;;7.97;2.72;;;22.90;98.70;;;23.63;89.17;101334.41;5223343;28;20049;-50
2023/10/10 11:15:15;;;;;;;6.00;2.58;;;23.00;98.40;;;23.69;88.19;101331.69;5220402;28;20078;-51
2023/10/10 11:18:07;;;;;;;7.88;2.58;;;23.00;98.00;;;23.81;86.07;101331.53;5224042;28;20048;-50
2023/10/10 11:20:57;;;;;;;4.55;1.90;;;23.10;97.30;;;23.92;85.55;101318.97;5226112;28;20067;-50
2023/10/10 11:23:41;;;;;;;7.45;2.55;;;23.20;97.00;;;24.00;84.50;101332.22;5227234;28;20407;-50
2023/10/10 11:26:15;;;;;;;5.25;2.35;;;23.30;96.60;;;24.07;84.99;101328.56;5226638;28;20539;-50
2023/10/10 11:28:48;;;;;;;;;;;23.40;96.60;;;24.19;84.41;101316.84;5228118;28;20553;-50
2023/10/10 11:31:24;;;;;;;5.15;2.20;;;23.50;96.40;;;24.30;84.65;101320.28;5224133;28;19951;-49
2023/10/10 11:34:10;;;;;;;5.20;2.30;;;23.60;96.40;;;24.43;84.60;101311.22;5228715;28;20064;-49
2023/10/10 11:36:50;;;;;;;4.18;2.40;;;23.70;96.40;;;24.60;83.78;101311.88;5226880;28;20063;-48
2023/10/10 11:39:31;;;;;;;3.65;1.95;;;23.90;96.20;;;24.60;82.69;101308.34;5244397;28;20041;-48
2023/10/10 11:42:05;;;;;;;9.52;3.30;;;23.90;95.40;;;24.51;81.26;101309.34;5241516;28;20053;-49
2023/10/10 11:44:41;;;;;;;5.40;2.38;;;23.90;94.80;;;24.58;82.48;101308.38;5239699;28;20507;-49
2023/10/10 11:47:24;;;;;;;5.13;2.17;;;24.00;95.20;;;24.70;82.21;101303.72;5226838;28;20048;-49
2023/10/10 11:50:01;;;;;;;4.38;2.15;;;24.00;95.20;;;24.64;81.78;101305.59;5227167;28;20553;-49
2023/10/10 11:52:35;;;;;;;5.97;2.30;;;24.00;94.70;;;24.71;82.54;101294.81;5228404;28;20103;-49
2023/10/10 11:55:09;;;;;;;6.75;2.40;;;24.00;95.00;;;24.69;81.48;101301.97;5224692;28;20143;-49
2023/10/10 11:57:46;;;;;;;5.68;2.42;;;24.10;94.40;;;24.68;81.92;101294.88;5227309;28;20044;-49
2023/10/10 12:00:22;;;;;;;7.05;2.47;;;24.10;94.60;;;24.72;82.23;101291.28;5233273;28;20056;-49
2023/10/10 12:02:55;;;;;;;5.05;2.47;;;24.10;94.60;;;24.84;82.39;101291.06;5227332;28;20067;-49
2023/10/10 12:05:47;;;;;;;6.20;2.35;;;24.20;94.80;;;24.85;81.49;101279.50;5245135;28;20042;-49
2023/10/10 12:08:24;;;;;;;5.70;2.45;;;24.20;94.30;;;24.79;81.60;101279.63;5239681;28;20131;-49
2023/10/10 12:11:05;;;;;;;5.15;2.22;;;24.20;94.10;;;24.83;81.16;101275.97;5242827;28;20044;-49
2023/10/10 12:13:44;;;;;;;7.82;2.60;;;24.20;94.00;;;24.89;81.44;101273.22;5226362;28;20048;-48
2023/10/10 12:16:17;;;;;;;6.20;2.13;;;24.20;94.00;;;24.95;80.87;101275.78;5244816;28;20048;-49
2023/10/10 12:18:50;;;;;;;4.32;2.00;;;24.30;93.80;;;25.05;80.87;101279.22;5227145;28;20052;-49
2023/10/10 12:21:26;;;;;;;5.38;2.35;;;24.40;93.60;;;25.15;80.62;101271.00;5227856;28;20493;-48
2023/10/10 12:24:00;;;;;;;5.78;2.08;;;24.40;93.60;;;25.22;80.30;101270.91;5240610;28;20048;-49
2023/10/10 12:26:38;;;;;;;4.90;2.15;;;24.50;93.30;;;25.32;80.03;101269.81;5226767;28;20044;-49
2023/10/10 12:29:11;;;;;;;4.68;2.00;;;24.60;93.20;;;25.33;79.88;101263.59;5225243;28;20063;-51
2023/10/10 12:31:43;;;;;;;7.22;2.33;;;24.60;93.00;;;25.36;78.95;101268.84;5236629;28;20535;-51
2023/10/10 12:34:21;;;;;;;6.28;2.50;;;24.70;92.60;;;25.38;78.52;101261.72;5226067;28;20069;-50
2023/10/10 12:36:59;;;;;;;4.30;1.95;;;24.70;92.40;;;25.38;79.26;101262.59;5225521;28;20079;-49
2023/10/10 12:39:33;;;;;;;6.65;2.40;;;24.70;92.60;;;25.38;79.32;101257.25;5220522;28;20072;-49
2023/10/10 12:42:07;;;;;;;;;;;24.70;92.40;;;25.45;79.44;101252.69;5227020;28;20041;-50
2023/10/10 12:44:39;;;;;;;6.70;2.50;;;24.80;92.50;;;25.51;78.73;101251.69;5227640;28;19920;-50
2023/10/10 12:47:17;;;;;;;4.60;2.15;;;24.80;92.10;;;25.46;78.01;101249.09;5225681;28;20044;-51
2023/10/10 12:49:50;;;;;;;5.28;2.20;;;24.80;91.80;;;25.52;78.49;101248.09;5222980;28;20048;-49
2023/10/10 12:52:22;;;;;;;3.55;1.70;;;24.80;91.90;;;25.61;78.71;101247.91;5219781;28;20052;-51
2023/10/10 12:54:58;;;;;;;4.13;2.08;;;24.90;91.90;;;25.68;78.53;101245.06;5227048;28;20480;-50